• Join FlightAware (Why Join?)
  • Login
  • US Flag 
08:32AM EDT


 

Airport Tracker/Info


-or-


 

Live Flight TrackerFlight Track Log ✈ UAL646 ✈ 31-Jul-2014 ✈ KEWR - KLAX

Flight Track Log - Related Links

Times and Time Zones

All times are in EDT time to prevent confusion due to time zone crossing. See the UAL646 flight status page for this flight to view local times or setup timezone preferences in your user account.

Time Position Orientation Groundspeed Altitude Reporting Facility
EDT Latitude Longitude Course Direction KTS MPH feet Rate Location/Type
08:27PM 40.6333 -74.1833 252° West 192 221 1,900  Level New York TRACON
08:28PM 40.6167 -74.2500 252° West 254 292 4,200 2,820 Climbing New York TRACON
08:29PM 40.6561 -74.3956 290° West 270 311 9,600 2,460 Climbing New York Center
08:30PM 40.6942 -74.5044 295° West 280 322 11,000 1,740 Climbing New York Center
08:31PM 40.7306 -74.6103 294° West 329 379 13,200 2,160 Climbing New York Center
08:32PM 40.7761 -74.7417 295° West 356 410 15,300 1,620 Climbing New York Center
08:33PM 40.8158 -74.8564 295° West 373 429 16,500 1,320 Climbing New York Center
08:34PM 40.8669 -75.0078 294° West 395 455 18,000 1,860 Climbing New York Center
08:35PM 40.9119 -75.1394 294° West 401 461 20,300 1,860 Climbing New York Center
08:36PM 40.9008 -75.2733 264° West 395 455 21,800 1,380 Climbing New York Center
08:37PM 40.8661 -75.4139 252° West 387 445 23,200 1,500 Climbing New York Center
08:38PM 40.8456 -75.5661 260° West 406 467 24,800 1,380 Climbing New York Center
08:39PM 40.8600 -75.7181 277° West 413 475 26,000 1,140 Climbing New York Center
08:40PM 40.8783 -75.8758 279° West 427 491 27,200 1,140 Climbing New York Center
08:41PM 40.8967 -76.0308 279° West 432 497 28,300 1,260 Climbing New York Center
08:42PM 40.9142 -76.1942 278° West 432 497 29,700 2,700 Climbing New York Center
08:43PM 40.9267 -76.3325 277° West 417 480 33,800 2,100 Climbing New York Center
08:44PM 40.9411 -76.4628 278° West 386 444 34,000 60 Climbing New York Center
08:45PM 40.9556 -76.5986 278° West 375 432 34,000  Level New York Center
08:46PM 40.9694 -76.7372 278° West 375 432 34,000  Level New York Center
08:47PM 40.9833 -76.8733 278° West 375 432 34,000  Level New York Center
08:48PM 40.9989 -77.0122 278° West 375 432 34,000  Level New York Center
08:49PM 41.0125 -77.1483 278° West 375 432 34,000  Level New York Center
08:50PM 41.0239 -77.2869 276° West 375 432 34,000  Level New York Center
08:51PM 41.0356 -77.3836 279° West 381 438 34,000  Level Cleveland Center
08:52PM 41.0478 -77.5222 277° West 384 442 34,000  Level Cleveland Center
08:53PM 41.0639 -77.6908 277° West 385 443 34,100  Climbing Cleveland Center
08:54PM 41.0767 -77.8328 277° West 386 444 34,100 -60 Level Cleveland Center
08:55PM 41.0889 -77.9725 277° West 386 444 34,000 -60 Descending Cleveland Center
08:56PM 41.1017 -78.1156 277° West 389 448 34,000  Level Cleveland Center
08:57PM 41.1139 -78.2600 276° West 390 449 34,000  Level Cleveland Center
08:58PM 41.1264 -78.4019 277° West 389 448 34,000  Level Cleveland Center
08:59PM 41.1408 -78.5747 276° West 395 455 34,000  Level Cleveland Center
09:00PM 41.1539 -78.7181 277° West 395 455 34,000  Level Cleveland Center
09:01PM 41.1653 -78.8614 276° West 395 455 34,000  Level Cleveland Center
09:02PM 41.1772 -79.0153 276° West 393 452 34,000  Level Cleveland Center
09:03PM 41.1892 -79.1622 276° West 396 456 34,000  Level Cleveland Center
09:04PM 41.2000 -79.2961 276° West 399 459 34,100  Climbing Cleveland Center
09:05PM 41.2128 -79.4758 275° West 407 468 34,100  Level Cleveland Center
09:06PM 41.2250 -79.6217 276° West 405 466 34,100 -60 Level Cleveland Center
09:08PM 41.2369 -79.7808 276° West 406 467 34,000 -60 Descending Cleveland Center
09:09PM 41.2467 -79.9269 275° West 403 464 34,000  Level Cleveland Center
09:10PM 41.2578 -80.0642 276° West 402 463 34,000  Level Cleveland Center
09:11PM 41.2678 -80.2119 275° West 403 464 34,000  Level Cleveland Center
09:12PM 41.2792 -80.3725 275° West 406 467 34,000  Level Cleveland Center
09:13PM 41.2889 -80.5233 275° West 405 466 34,000  Level Cleveland Center
09:14PM 41.3003 -80.7008 275° West 409 471 34,000  Level Cleveland Center
09:15PM 41.3103 -80.8536 275° West 411 473 34,100  Climbing Cleveland Center
09:16PM 41.3108 -81.0072 270° West 412 474 34,000 -60 Descending Cleveland Center
09:17PM 41.3033 -81.1597 266° West 411 473 34,000  Level Cleveland Center
09:18PM 41.2919 -81.3114 264° West 410 472 34,000  Level Cleveland Center
09:19PM 41.2811 -81.4719 265° West 410 472 34,000  Level Cleveland Center
09:20PM 41.2708 -81.6211 265° West 410 472 34,000  Level Cleveland Center
09:21PM 41.2603 -81.7733 265° West 411 473 34,000  Level Cleveland Center
09:22PM 41.2517 -81.9222 266° West 410 472 34,100  Climbing Cleveland Center
09:23PM 41.2425 -82.0733 265° West 409 471 34,100 -60 Level Cleveland Center
09:24PM 41.2328 -82.2347 265° West 408 470 34,000 240 Descending Cleveland Center
09:25PM 41.2247 -82.3869 266° West 408 470 34,600 840 Climbing Cleveland Center
09:26PM 41.2175 -82.5378 266° West 408 470 35,800 660 Climbing Cleveland Center
09:27PM 41.2069 -82.7150 266° West 408 470 36,000 60 Climbing Cleveland Center
09:28PM 41.1981 -82.8647 266° West 408 470 36,000  Level Cleveland Center
09:29PM 41.1894 -83.0164 266° West 407 468 36,000  Level Cleveland Center
09:30PM 41.1836 -83.1667 267° West 407 468 36,000  Level Cleveland Center
09:31PM 41.1878 -83.3167 272° West 411 473 36,000  Level Cleveland Center
09:32PM 41.1914 -83.4661 272° West 409 471 36,000  Level Cleveland Center
09:33PM 41.1950 -83.6175 272° West 408 470 36,000  Level Cleveland Center
09:34PM 41.1978 -83.7692 271° West 409 471 36,100  Climbing Cleveland Center
09:35PM 41.2006 -83.9458 271° West 409 471 36,100 -60 Level Cleveland Center
09:36PM 41.2033 -84.0967 271° West 408 470 36,000 -60 Descending Cleveland Center
09:37PM 41.2056 -84.2456 271° West 407 468 36,000  Level Cleveland Center
09:38PM 41.2081 -84.3953 271° West 406 467 36,000  Level Cleveland Center
09:39PM 41.2097 -84.5453 271° West 406 467 36,000  Level Cleveland Center
09:40PM 41.2108 -84.6647 271° West 406 467 36,000  Level Chicago Center
09:41PM 41.2122 -84.8169 271° West 409 471 36,000  Level Chicago Center
09:42PM 41.2133 -84.9717 271° West 412 474 36,100  Climbing Chicago Center
09:43PM 41.2147 -85.1269 271° West 415 478 36,100  Level Chicago Center
09:44PM 41.2147 -85.2811 270° West 416 479 36,100  Level Chicago Center
09:45PM 41.2161 -85.4681 271° West 418 481 36,100 -60 Level Chicago Center
09:46PM 41.2169 -85.6228 270° West 418 481 36,000 -60 Descending Chicago Center
09:47PM 41.2156 -85.7761 269° West 417 480 36,000  Level Chicago Center
09:48PM 41.2156 -85.9286 270° West 415 478 36,000  Level Chicago Center
09:49PM 41.2172 -86.0814 271° West 414 476 36,000  Level Chicago Center
09:51PM 41.2167 -86.2331 270° West 413 475 36,000  Level Chicago Center
09:52PM 41.2161 -86.3858 270° West 412 474 36,000  Level Chicago Center
09:53PM 41.2158 -86.5378 270° West 410 472 36,000  Level Chicago Center
09:54PM 41.2144 -86.7208 269° West 411 473 36,000  Level Chicago Center
09:55PM 41.2136 -86.8625 270° West 413 475 36,000  Level Chicago Center
09:56PM 41.2122 -87.0153 269° West 413 475 36,000  Level Chicago Center
09:57PM 41.2114 -87.1672 270° West 412 474 36,000  Level Chicago Center
09:58PM 41.2094 -87.3508 269° West 412 474 36,000  Level Chicago Center
09:59PM 41.2058 -87.5039 268° West 413 475 36,000  Level Chicago Center
10:00PM 41.2039 -87.6578 269° West 414 476 36,000  Level Chicago Center
10:01PM 41.2017 -87.8128 269° West 416 479 36,000  Level Chicago Center
10:02PM 41.1978 -87.9681 268° West 416 479 36,100  Climbing Chicago Center
10:03PM 41.1947 -88.1258 269° West 417 480 36,100 -60 Level Chicago Center
10:04PM 41.1933 -88.2814 269° West 417 480 36,000 -60 Descending Chicago Center
10:05PM 41.1900 -88.4361 268° West 418 481 36,000  Level Chicago Center
10:06PM 41.1858 -88.5908 268° West 418 481 36,000  Level Chicago Center
10:07PM 41.1828 -88.7464 269° West 418 481 36,000  Level Chicago Center
10:08PM 41.1797 -88.9331 269° West 420 483 36,000  Level Chicago Center
10:09PM 41.1756 -89.0881 268° West 420 483 36,000  Level Chicago Center
10:10PM 41.1700 -89.2486 267° West 420 483 36,000  Level Chicago Center
10:11PM 41.1394 -89.3994 255° West 429 494 36,000  Level Chicago Center
10:12PM 41.1022 -89.5475 252° West 428 493 36,000  Level Chicago Center
10:13PM 41.0664 -89.6958 252° West 427 491 36,000  Level Chicago Center
10:14PM 41.0294 -89.8431 252° West 427 491 36,000  Level Chicago Center
10:15PM 40.9942 -89.9878 252° West 425 489 36,000  Level Chicago Center
10:16PM 40.9467 -90.1633 250° West 431 496 36,000  Level Chicago Center
10:17PM 40.9117 -90.3125 253° West 433 498 36,100  Climbing Chicago Center
10:18PM 40.8742 -90.4583 251° West 426 490 36,100 -60 Level Chicago Center
10:19PM 40.8369 -90.6031 251° West 422 486 36,000 -60 Descending Chicago Center
10:20PM 40.7989 -90.7461 251° West 418 481 36,000  Level Chicago Center
10:21PM 40.7625 -90.8908 252° West 418 481 36,000  Level Chicago Center
10:22PM 40.7247 -91.0342 251° West 418 481 36,000  Level Chicago Center
10:23PM 40.6872 -91.1786 251° West 417 480 36,100  Climbing Chicago Center
10:24PM 40.6422 -91.3425 250° West 417 480 36,100 -60 Level Chicago Center
10:25PM 40.6047 -91.4850 251° West 417 480 36,000 -60 Descending Chicago Center
10:26PM 40.5669 -91.6253 251° West 414 476 36,000  Level Chicago Center
10:27PM 40.5292 -91.7681 251° West 414 476 36,000  Level Chicago Center
10:28PM 40.4981 -91.8814 250° West 415 478 36,000  Level Kansas City Center
10:29PM 40.4597 -92.0233 250° West 415 478 36,000  Level Kansas City Center
10:30PM 40.4122 -92.1942 250° West 416 479 36,100  Climbing Kansas City Center
10:32PM 40.3661 -92.3642 250° West 416 479 36,100 -60 Level Chicago Center
10:32PM 40.3378 -92.4650 250° West 416 479 36,000 -60 Descending Kansas City Center
10:33PM 40.2950 -92.6158 250° West 408 470 36,000  Level Kansas City Center
10:34PM 40.2561 -92.7558 250° West 409 471 36,000  Level Kansas City Center
10:35PM 40.2158 -92.8983 250° West 413 475 36,100  Climbing Kansas City Center
10:36PM 40.1739 -93.0464 250° West 411 473 36,100 -60 Level Kansas City Center
10:37PM 40.1356 -93.1825 250° West 407 468 36,000 -60 Descending Kansas City Center
10:39PM 40.0975 -93.3197 250° West 407 468 36,000  Level Kansas City Center
10:40PM 40.0558 -93.4561 248° West 406 467 36,000  Level Kansas City Center
10:41PM 40.0103 -93.6244 251° West 408 470 36,100  Climbing Kansas City Center
10:42PM 39.9669 -93.7633 248° West 411 473 36,100 -60 Level Kansas City Center
10:43PM 39.9244 -93.9039 249° West 418 481 36,000 -60 Descending Kansas City Center
10:44PM 39.8839 -94.0431 249° West 418 481 36,000  Level Kansas City Center
10:45PM 39.8444 -94.1789 249° West 415 478 36,000  Level Kansas City Center
10:46PM 39.8033 -94.3189 249° West 415 478 36,000  Level Kansas City Center
10:47PM 39.7536 -94.4858 249° West 415 478 36,000  Level Kansas City Center
10:48PM 39.7117 -94.6253 249° West 415 478 36,000  Level Kansas City Center
10:49PM 39.6706 -94.7631 249° West 414 476 36,000  Level Kansas City Center
10:50PM 39.6292 -94.8997 249° West 413 475 36,000  Level Kansas City Center
10:51PM 39.5892 -95.0344 249° West 408 470 36,000  Level Kansas City Center
10:52PM 39.5406 -95.1892 248° West 408 470 36,000  Level Kansas City Center
10:53PM 39.4978 -95.3233 248° West 409 471 36,000  Level Kansas City Center
10:54PM 39.4533 -95.4658 248° West 409 471 36,000  Level Kansas City Center
10:55PM 39.4139 -95.5997 249° West 409 471 36,000  Level Kansas City Center
10:56PM 39.3708 -95.7356 248° West 410 472 36,100  Climbing Kansas City Center
10:57PM 39.3278 -95.8722 248° West 410 472 36,100 -60 Level Kansas City Center
10:58PM 39.2842 -96.0078 247° West 411 473 36,000 -60 Descending Kansas City Center
10:59PM 39.2408 -96.1428 248° West 411 473 36,000  Level Kansas City Center
11:00PM 39.1892 -96.3050 248° West 410 472 36,000  Level Kansas City Center
11:01PM 39.1458 -96.4414 248° West 410 472 36,000  Level Kansas City Center
11:02PM 39.1008 -96.5789 247° West 415 478 36,100  Climbing Kansas City Center
11:03PM 39.0572 -96.7164 248° West 416 479 36,100 -60 Level Kansas City Center
11:04PM 39.0128 -96.8508 247° West 415 478 36,000 -60 Descending Kansas City Center
11:05PM 38.9661 -96.9936 247° West 410 472 36,000  Level Kansas City Center
11:06PM 38.9231 -97.1258 247° West 406 467 36,000  Level Kansas City Center
11:07PM 38.8794 -97.2578 247° West 404 465 36,000  Level Kansas City Center
11:08PM 38.8358 -97.3900 247° West 404 465 36,100  Climbing Kansas City Center
11:09PM 38.7850 -97.5419 247° West 404 465 36,000  Descending Kansas City Center
11:10PM 38.7392 -97.6733 246° West 404 465 36,100  Climbing Kansas City Center
11:11PM 38.6939 -97.8100 247° West 404 465 36,000  Descending Kansas City Center
11:12PM 38.6508 -97.9408 247° West 404 465 36,100  Climbing Kansas City Center
11:13PM 38.6058 -98.0728 246° West 399 459 36,100 -60 Level Kansas City Center
11:14PM 38.5633 -98.1956 246° West 396 456 36,000 -60 Descending Kansas City Center
11:15PM 38.5208 -98.3208 247° West 391 450 36,000  Level Kansas City Center
11:16PM 38.4772 -98.4461 246° West 391 450 36,000  Level Kansas City Center
11:17PM 38.4247 -98.5972 246° West 390 449 36,000  Level Kansas City Center
11:18PM 38.3811 -98.7239 246° West 391 450 36,100  Climbing Kansas City Center
11:19PM 38.3378 -98.8508 247° West 391 450 36,100  Level Kansas City Center
11:20PM 38.2925 -98.9794 246° West 395 455 36,100 -60 Level Kansas City Center
11:22PM 38.2472 -99.1053 245° Southwest 395 455 36,000 -60 Descending Kansas City Center
11:23PM 38.2025 -99.2314 246° West 395 455 36,000  Level Kansas City Center
11:24PM 38.1581 -99.3567 246° West 394 453 36,000  Level Kansas City Center
11:25PM 38.1122 -99.4814 245° Southwest 393 452 36,000  Level Kansas City Center
11:26PM 38.0567 -99.6331 245° Southwest 392 451 36,000  Level Kansas City Center
11:27PM 38.0144 -99.7514 246° West 390 449 36,000  Level Kansas City Center
11:28PM 37.9725 -99.8725 246° West 390 449 36,000  Level Kansas City Center
11:29PM 37.9208 -100.0119 245° Southwest 390 449 36,000  Level Kansas City Center
11:30PM 37.8767 -100.1331 245° Southwest 391 450 36,100  Climbing Kansas City Center
11:31PM 37.8250 -100.2744 245° Southwest 393 452 36,100  Level Kansas City Center
11:32PM 37.7806 -100.3953 245° Southwest 394 453 36,100 -60 Level Kansas City Center
11:33PM 37.7367 -100.5131 245° Southwest 394 453 36,000 -60 Descending Kansas City Center
11:34PM 37.6908 -100.6383 245° Southwest 394 453 36,000  Level Kansas City Center
11:35PM 37.6439 -100.7625 245° Southwest 393 452 36,000  Level Kansas City Center
11:36PM 37.5836 -100.9181 244° Southwest 407 468 36,000  Level Kansas City Center
11:37PM 37.5364 -101.0461 245° Southwest 406 467 36,000  Level Kansas City Center
11:38PM 37.4914 -101.1700 245° Southwest 398 458 36,100  Climbing Kansas City Center
11:39PM 37.4456 -101.2914 245° Southwest 398 458 36,000 -60 Descending Kansas City Center
11:40PM 37.3919 -101.4325 244° Southwest 398 458 36,000  Level Kansas City Center
11:41PM 37.3458 -101.5528 244° Southwest 398 458 36,000  Level Kansas City Center
11:42PM 37.2997 -101.6731 244° Southwest 398 458 36,000  Level Kansas City Center
11:43PM 37.2456 -101.8128 244° Southwest 398 458 36,000  Level Kansas City Center
11:44PM 37.1992 -101.9331 244° Southwest 398 458 36,000  Level Kansas City Center
11:45PM 37.1458 -102.0736 245° Southwest 399 459 36,000  Level Kansas City Center
11:46PM 37.1139 -102.1531 243° Southwest 400 460 36,000  Level Albuquerque Center
11:47PM 37.0672 -102.2708 244° Southwest 399 459 36,000  Level Albuquerque Center
11:48PM 37.0133 -102.4092 244° Southwest 398 458 36,000  Level Albuquerque Center
11:49PM 36.9658 -102.5331 244° Southwest 398 458 36,000  Level Albuquerque Center
11:50PM 36.9147 -102.6581 243° Southwest 399 459 36,000  Level Albuquerque Center
11:51PM 36.8667 -102.7822 244° Southwest 399 459 36,000  Level Albuquerque Center
11:52PM 36.8164 -102.9081 244° Southwest 400 460 36,000  Level Albuquerque Center
11:53PM 36.7653 -103.0347 243° Southwest 406 467 36,000  Level Albuquerque Center
11:54PM 36.7136 -103.1597 243° Southwest 406 467 36,000 240 Level Albuquerque Center
11:55PM 36.6628 -103.2861 243° Southwest 406 467 36,500 900 Climbing Albuquerque Center
11:56PM 36.6058 -103.4261 243° Southwest 406 467 37,900 720 Climbing Albuquerque Center
11:57PM 36.5544 -103.5492 243° Southwest 405 466 38,000  Climbing Albuquerque Center
11:58PM 36.5033 -103.6742 243° Southwest 404 465 38,000  Level Albuquerque Center
11:59PM 36.4508 -103.7986 242° Southwest 404 465 38,000  Level Albuquerque Center
12:00AM 36.4006 -103.9228 243° Southwest 404 465 38,000  Level Albuquerque Center
12:01AM 36.3400 -104.0653 242° Southwest 401 461 38,000  Level Albuquerque Center
12:02AM 36.2881 -104.1875 242° Southwest 401 461 38,000  Level Albuquerque Center
12:03AM 36.2364 -104.3103 242° Southwest 401 461 38,000  Level Albuquerque Center
12:04AM 36.1828 -104.4339 242° Southwest 401 461 38,000  Level Albuquerque Center
12:05AM 36.1300 -104.5581 242° Southwest 402 463 38,100  Climbing Albuquerque Center
12:06AM 36.0764 -104.6819 242° Southwest 404 465 38,000  Descending Albuquerque Center
12:07AM 36.0233 -104.8072 242° Southwest 406 467 38,100  Climbing Albuquerque Center
12:08AM 35.9689 -104.9308 241° Southwest 407 468 38,000 -60 Descending Albuquerque Center
12:09AM 35.9150 -105.0567 242° Southwest 408 470 38,000  Level Albuquerque Center
12:10AM 35.8608 -105.1794 241° Southwest 408 470 38,000  Level Albuquerque Center
12:11AM 35.8067 -105.3036 242° Southwest 408 470 38,000  Level Albuquerque Center
12:12AM 35.7436 -105.4478 242° Southwest 408 470 38,000  Level Albuquerque Center
12:13AM 35.6922 -105.5625 241° Southwest 408 470 38,000  Level Albuquerque Center
12:14AM 35.6381 -105.6869 242° Southwest 409 471 38,000  Level Albuquerque Center
12:15AM 35.5869 -105.8017 241° Southwest 410 472 38,100  Climbing Albuquerque Center
12:16AM 35.5272 -105.9369 242° Southwest 418 481 38,100 -60 Level Albuquerque Center
12:17AM 35.4803 -106.0678 246° West 420 483 38,000  Descending Albuquerque Center
12:18AM 35.4433 -106.2297 254° West 421 484 38,100  Climbing Albuquerque Center
12:19AM 35.4117 -106.3658 254° West 420 483 38,000 -60 Descending Albuquerque Center
12:20AM 35.3783 -106.5017 253° West 420 483 38,000  Level Albuquerque Center
12:21AM 35.3447 -106.6381 253° West 420 483 38,000  Level Albuquerque Center
12:22AM 35.3092 -106.7844 253° West 420 483 38,000  Level Albuquerque Center
12:23AM 35.2758 -106.9183 253° West 417 480 38,000  Level Albuquerque Center
12:25AM 35.2422 -107.0536 253° West 417 480 38,000  Level Albuquerque Center
12:26AM 35.2078 -107.1881 253° West 417 480 38,000  Level Albuquerque Center
12:27AM 35.1756 -107.3192 253° West 418 481 38,000  Level Albuquerque Center
12:28AM 35.1369 -107.4728 253° West 420 483 38,100  Climbing Albuquerque Center
12:29AM 35.0994 -107.6153 252° West 433 498 38,100  Level Albuquerque Center
12:30AM 35.0644 -107.7528 253° West 432 497 38,100 -60 Level Albuquerque Center
12:31AM 35.0289 -107.8886 252° West 428 493 38,000 -60 Descending Albuquerque Center
12:32AM 34.9933 -108.0236 252° West 423 487 38,000  Level Albuquerque Center
12:33AM 34.9650 -108.1611 256° West 423 487 38,000  Level Albuquerque Center
12:34AM 34.9325 -108.3083 255° West 422 486 38,000  Level Albuquerque Center
12:35AM 34.9036 -108.4394 255° West 420 483 38,000  Level Albuquerque Center
12:36AM 34.8736 -108.5725 255° West 420 483 38,000  Level Albuquerque Center
12:37AM 34.8403 -108.7258 255° West 420 483 38,000  Level Albuquerque Center
12:38AM 34.8103 -108.8558 254° West 420 483 38,000  Level Albuquerque Center
12:39AM 34.7794 -108.9858 254° West 418 481 38,100  Climbing Albuquerque Center
12:40AM 34.7456 -109.1411 255° West 419 482 38,000 -60 Descending Albuquerque Center
12:41AM 34.7150 -109.2736 254° West 422 486 38,000  Level Albuquerque Center
12:42AM 34.6847 -109.4050 254° West 422 486 38,000  Level Albuquerque Center
12:43AM 34.6492 -109.5589 254° West 422 486 38,000  Level Albuquerque Center
12:44AM 34.6211 -109.6911 256° West 422 486 38,000  Level Albuquerque Center
12:45AM 34.6142 -109.8300 267° West 426 490 38,000  Level Albuquerque Center
12:46AM 34.6036 -109.9883 265° West 424 488 38,000  Level Albuquerque Center
12:47AM 34.5950 -110.1247 266° West 423 487 38,000  Level Albuquerque Center
12:48AM 34.5886 -110.2667 267° West 429 494 38,000  Level Albuquerque Center
12:49AM 34.5783 -110.4253 266° West 424 488 38,000  Level Albuquerque Center
12:50AM 34.5694 -110.5611 265° West 425 489 38,000  Level Albuquerque Center
12:51AM 34.5594 -110.6967 265° West 424 488 38,000  Level Albuquerque Center
12:52AM 34.5467 -110.8458 264° West 425 489 38,100  Climbing Albuquerque Center
12:53AM 34.5367 -110.9906 265° West 430 495 38,100 -60 Level Albuquerque Center
12:54AM 34.5275 -111.1328 266° West 429 494 38,000 -60 Descending Albuquerque Center
12:55AM 34.5178 -111.2744 265° West 428 493 38,000  Level Albuquerque Center
12:56AM 34.5069 -111.4164 265° West 427 491 38,000  Level Albuquerque Center
12:57AM 34.4972 -111.5578 265° West 427 491 38,000  Level Albuquerque Center
12:58AM 34.4844 -111.7281 265° West 427 491 38,000  Level Albuquerque Center
12:59AM 34.4739 -111.8697 265° West 426 490 38,000  Level Albuquerque Center
01:00AM 34.4619 -112.0092 264° West 425 489 38,000  Level Albuquerque Center
01:01AM 34.4517 -112.1481 265° West 423 487 38,000  Level Albuquerque Center
01:02AM 34.4411 -112.2867 265° West 421 484 38,000  Level Albuquerque Center
01:03AM 34.4297 -112.4264 264° West 420 483 38,000  Level Albuquerque Center
01:04AM 34.4183 -112.5669 264° West 420 483 38,100  Climbing Albuquerque Center
01:05AM 34.4061 -112.7075 264° West 420 483 38,000 -60 Descending Albuquerque Center
01:06AM 34.3950 -112.8500 265° West 422 486 38,000  Level Albuquerque Center
01:07AM 34.3833 -112.9908 264° West 422 486 38,000  Level Albuquerque Center
01:08AM 34.3708 -113.1339 264° West 424 488 38,000  Level Albuquerque Center
01:09AM 34.3575 -113.2783 264° West 428 493 38,000  Level Albuquerque Center
01:10AM 34.3456 -113.4239 264° West 432 497 38,100  Climbing Albuquerque Center
01:11AM 34.3283 -113.6006 263° West 438 504 38,000 -60 Descending Albuquerque Center
01:12AM 34.3164 -113.7308 264° West 438 504 38,000  Level Albuquerque Center
01:13AM 34.3017 -113.8778 263° West 438 504 38,000  Level Albuquerque Center
01:14AM 34.2894 -114.0211 264° West 435 501 38,000  Level Albuquerque Center
01:15AM 34.2747 -114.1664 263° West 435 501 38,000 -120 Level Albuquerque Center
01:16AM 34.2650 -114.2822 264° West 433 498 37,900  Descending Los Angeles Center
01:17AM 34.2522 -114.4267 264° West 432 497 38,000  Climbing Los Angeles Center
01:18AM 34.2375 -114.5697 263° West 432 497 38,000  Level Los Angeles Center
01:19AM 34.2233 -114.7119 263° West 431 496 38,000  Level Los Angeles Center
01:20AM 34.2086 -114.8553 263° West 431 496 38,000  Level Los Angeles Center
01:21AM 34.1944 -114.9950 263° West 425 489 38,000 -60 Level Los Angeles Center
01:22AM 34.1803 -115.1350 263° West 421 484 37,900  Descending Los Angeles Center
01:23AM 34.1658 -115.2728 263° West 419 482 38,000  Climbing Los Angeles Center
01:24AM 34.1506 -115.4078 262° West 412 474 38,000  Level Los Angeles Center
01:25AM 34.1322 -115.5731 262° West 412 474 38,000  Level Los Angeles Center
01:26AM 34.1197 -115.7147 264° West 420 483 38,000 -120 Level Los Angeles Center
01:27AM 34.1014 -115.8522 261° West 419 482 37,800 -540 Descending Los Angeles Center
01:28AM 34.0800 -115.9867 259° West 414 476 36,900 -1,380 Descending Los Angeles Center
01:29AM 34.0600 -116.1253 260° West 415 478 35,100 -2,460 Descending Los Angeles Center
01:30AM 34.0386 -116.2667 260° West 425 489 32,000 -2,940 Descending Los Angeles Center
01:31AM 34.0167 -116.4114 260° West 437 503 29,100 -2,640 Descending Los Angeles Center
01:32AM 34.0000 -116.5553 262° West 439 505 26,600 -2,760 Descending Los Angeles Center
01:33AM 33.9864 -116.7200 264° West 429 494 23,600 -2,700 Descending Los Angeles Center
01:34AM 33.9744 -116.8678 264° West 420 483 21,100 -2,520 Descending Los Angeles Center
01:35AM 33.9667 -116.9833 265° West 395 455 19,000 -2,400 Descending Southern California TRACON
01:36AM 33.9500 -117.1000 260° West 394 453 17,000 -1,740 Descending Southern California TRACON
01:37AM 33.9500 -117.2167 270° West 363 418 15,700 -1,080 Descending Southern California TRACON
01:38AM 33.9333 -117.3333 260° West 335 386 14,900 -1,200 Descending Southern California TRACON
01:39AM 33.9500 -117.4333 281° West 315 362 13,500 -1,560 Descending Southern California TRACON
01:40AM 33.9833 -117.5167 296° West 304 350 12,000 -1,320 Descending Southern California TRACON
01:41AM 34.0167 -117.6333 289° West 349 402 10,800 -1,200 Descending Southern California TRACON
01:42AM 34.0000 -117.7333 259° West 282 325 9,500 -1,320 Descending Southern California TRACON
01:43AM 34.0000 -117.8167 270° West 282 325 8,200 -1,440 Descending Southern California TRACON
01:44AM 33.9833 -117.9167 259° West 280 322 6,700 -1,440 Descending Southern California TRACON
01:45AM 33.9667 -118.0000 256° West 275 316 5,300 -1,440 Descending Southern California TRACON
01:46AM 33.9667 -118.0833 270° West 262 302 3,900 -1,440 Descending Southern California TRACON
01:47AM 33.9631 -118.1297 265° West 267 307 3,200 -840 Descending Los Angeles Center
01:48AM 33.9547 -118.2119 263° West 260 299 2,700 -660 Descending Los Angeles Center
01:49AM 33.9472 -118.2811 263° West 234 269 1,900 -840 Descending Los Angeles Center
01:50AM 33.9439 -118.3333 266° West 184 212 1,000 -840 Descending Los Angeles Center
01:51AM 33.9394 -118.3767 263° West 152 175 200 -480 Descending Los Angeles Center
01:52AM 33.9347 -118.4194 262° West 148 170 100 -120 Descending Los Angeles Center